Detall de PIREP

Printer-friendly versionPDF version

[2013/11/16 08:21:00]
Flight IATA:CT3251
Pilot Number:012
Company ICAO:CAT
Aircraft Type:DC85/A
PAX:132
Aircraft Registration:PAX
Departing Airport: EYVI
Destination Airport: LEPA
Alternate Airport:LEBL
Online: VATSIM
Route:LAVAR/M084F380 L29 VABER L735 SUW M857 BULEP N869 XATOG M985 EVINA N744 TUSIN UM984 DETSA/M084F390 UM984 PADKO UY38 VATIR UN852 VERSO UL129 LUNIK
Flight Level:F390
No Slew and time accel
No pause
Crash detect
Detect pilot in Cockpit between each 30 and 45 minutes
08:21 Zero fuel Weight: 164901 Lbs, Fuel Weight: 62290 Lbs
08:21 VATSIM:EYVI 160350Z 21008KT 2700 -RASN BR OVC004 01/01 Q1018 R20/2///95 NOSIG
08:21 VATSIM:LEPA 160800Z 08004KT 040V130 9999 FEW016TCU BKN020 12/11 Q1012 NOSIG
08:21 VOICE CATALONIAN
08:22 Parking Brakes off
08:25 Take-off
08:25 Take off Weight: 226443 Lbs
08:25 Wind: 223º @ 011 Knots Heading: 201º
08:25 POS N54º 37´ 42´´ E025º 16´ 55´´
08:25 Gear Up: 166 Knots
08:25 Flaps:2 at 166 Knots
08:25 Flaps:1 at 184 Knots
08:25 Flaps:0 at 229 Knots
08:40 Wind:012º@075 Knots Heading: 257º Ground Speed: 376 Knots Altitude 36135 ft
08:55 Wind:040º@078 Knots Heading: 255º Ground Speed: 528 Knots Altitude 38323 ft
09:10 Wind:057º@074 Knots Heading: 213º Ground Speed: 538 Knots Altitude 38471 ft
09:25 Wind:069º@090 Knots Heading: 223º Ground Speed: 546 Knots Altitude 38487 ft
09:40 Wind:088º@066 Knots Heading: 206º Ground Speed: 503 Knots Altitude 38845 ft
09:40 TOC
09:40 Fuel Weight: 44500 Lb
09:55 Wind:083º@043 Knots Heading: 243º Ground Speed: 509 Knots Altitude 39396 ft
10:10 Wind:094º@047 Knots Heading: 228º Ground Speed: 509 Knots Altitude 39337 ft
10:25 Wind:110º@061 Knots Heading: 206º Ground Speed: 494 Knots Altitude 39301 ft
10:40 Wind:111º@051 Knots Heading: 214º Ground Speed: 487 Knots Altitude 39235 ft
10:55 Wind:096º@034 Knots Heading: 184º Ground Speed: 478 Knots Altitude 38999 ft
10:55 TOD
10:55 Fuel Weight: 30027 Lb
11:10 Wind:089º@011 Knots Heading: 170º Ground Speed: 279 Knots Altitude 11292 ft
11:17 Flaps:1 at 220 Knots
11:18 Flaps:2 at 214 Knots
11:21 Flaps:3 at 199 Knots
11:23 Gear Down: 179 Knots
11:23 Flaps:4 at 164 Knots
11:24 Flaps:5 at 149 Knots
11:25 Wind:118º@007 Knots Heading: 070º Ground Speed: 146 Knots Altitude 1758 ft
11:27 TouchDown:Rate -236 ft/min Speed: 138 Knots
11:27 VATSIM:LEPA 161100Z 10007KT 9999 -RA FEW018 BKN035 13/10 Q1014 NOSIG
11:27 Land
11:27 Wind:118º@007 Knots
11:27 Heading: 060º
11:27 Flight Duration: 03:02
11:27 Landing Weight: 191296 Lbs
11:27 POS N39º 33´ 09´´ E002º 43´ 22´´
11:29 Parking brakes on
11:29 Block to Block Duration: 03:07
11:29 Final Fuel: 26192 Lbls
11:29 Spent Fuel: 36097 Lbls
11:29 Flight Length: 1397 NM
11:29 TOD Land Length: 161 NM

Exportar CSV

Powered by Drupal - Modified by Danger4k